This is the latest recevied weather packets stored in our database for station/object DL8BGD. If no packets are shown the sender has not sent any weather packets the latest 10 day(s).
| Time | Temp. | Humidity | Pressure | Rain* | Wind** | Luminosity | Snow |
|---|---|---|---|---|---|---|---|
| 1777736438 | 22.78° C | 19% | 1022.2 hPa | 0 mm | - | - | - |
| 1777735837 | 23.33° C | 18% | 1022.3 hPa | 0 mm | - | - | - |
| 1777735242 | 22.78° C | 17% | - | 0 mm | - | - | - |
| 1777735237 | 22.78° C | 17% | 1022.4 hPa | 0 mm | - | - | - |
| 1777734637 | 23.33° C | 19% | 1022.5 hPa | 0 mm | - | - | - |
| 1777734036 | 23.33° C | 18% | 1022.7 hPa | 0 mm | - | - | - |
| 1777733436 | 23.33° C | 18% | 1022.8 hPa | 0 mm | - | - | - |
| 1777732835 | 23.33° C | 17% | 1022.9 hPa | 0 mm | - | - | - |
| 1777732235 | 23.33° C | 17% | 1023 hPa | 0 mm | - | - | - |
| 1777731635 | 23.89° C | 16% | 1023.1 hPa | 0 mm | - | - | - |
| 1777731034 | 23.89° C | 18% | 1023.2 hPa | 0 mm | - | - | - |
| 1777730434 | 23.33° C | 17% | 1023.3 hPa | 0 mm | - | - | - |
| 1777729834 | 23.33° C | 17% | 1023.4 hPa | 0 mm | - | - | - |
| 1777729233 | 23.89° C | 16% | 1023.5 hPa | 0 mm | - | - | - |
| 1777728633 | 23.89° C | 16% | 1023.6 hPa | 0 mm | - | - | - |
| 1777728031 | 23.89° C | 16% | 1023.7 hPa | 0 mm | - | - | - |
| 1777727430 | 23.89° C | 16% | 1024 hPa | 0 mm | - | - | - |
| 1777726830 | 23.89° C | 15% | 1024 hPa | 0 mm | - | - | - |
| 1777350071 | 5° C | 79% | 1021.2 hPa | 0 mm | - | - | - |
| 1777349471 | 5.56° C | 77% | 1021.1 hPa | 0 mm | - | - | - |
| 1777348871 | 5.56° C | 77% | 1021.1 hPa | 0 mm | - | - | - |
| 1777348270 | 5.56° C | 78% | 1021.2 hPa | 0 mm | - | - | - |
| 1777347670 | 5° C | 78% | 1021.2 hPa | 0 mm | - | - | - |
| 1777347070 | 5° C | 78% | 1021.3 hPa | 0 mm | - | - | - |
| 1777346469 | 5° C | 78% | 1021.2 hPa | 0 mm | - | - | - |
* Rain since midnight (hover to see other rain measurements)
** Current wind speed in m/s (hover to see current wind gust speed)